CheckWX is a tool to help pilots better visualize weather data.  It is not intended as a substitute for an official pre-flight weather briefing.

09:13:03 UTC

KTQE METAR
Tekamah Municipal Airport
Tekamah, Nebraska, USA
Current

19 mins ago

KTQE 310854Z AUTO 07004KT 10SM OVC055 15/13 A3022 RMK AO2 SLP227 60000 T01500128 58006
Observed
May-31 @ 08:54 UTC
Wind
  • 070° at 4 KTS
Visibility
Flight Rules
VFR
Cloud Levels
  • Overcast at 5,500' AGL
Temperature
15°C / 59°F
Dewpoint
13°C / 55°F
Humidity
88%
Altimeter
30.22" Hg
Pressure
1023.42 hPa
Previous

1 hour ago

KTQE 310754Z AUTO 00000KT 10SM OVC055 15/13 A3023 RMK AO2 SLP232 T01500133
Observed
May-31 @ 07:54 UTC
Visibility
Flight Rules
VFR
Cloud Levels
  • Overcast at 5,500' AGL
Temperature
15°C / 59°F
Dewpoint
13°C / 55°F
Humidity
88%
Altimeter
30.23" Hg
Pressure
1023.72 hPa
Previous

2 hours ago

KTQE 310654Z AUTO 04003KT 9SM OVC060 15/13 A3024 RMK AO2 RAB30E44 SLP234 P0000 T01500133
Observed
May-31 @ 06:54 UTC
Wind
  • 040° at 3 KTS
Visibility
Flight Rules
VFR
Cloud Levels
  • Overcast at 6,000' AGL
Temperature
15°C / 59°F
Dewpoint
13°C / 55°F
Humidity
88%
Altimeter
30.24" Hg
Pressure
1024.02 hPa
Current Rain
0.01"